Union, Utah
Current Conditions -  °F | °C
As of 6:53 PM on Saturday 25 Oct 2014 (Local Time) from KSLC Reporting Station
Broken Clouds Broken Clouds  
Wind Chill: 73°   Ceiling: 20000
Heat Index: 73°   Visibility: 10mi
Dew Point: 33°   Wind: 14mph
Humidity: 23%   Direction: 180°S
Pressure: 29.88"   Gusts: 26mph
Location:  40.615°N, 111.891°W
Report Text: KSLC 260053Z 18012G23KT 10SM SCT120 BKN200 23/01 A2988 RMK AO2 PK WND 17028/2358 SLP079 P0000 T02280006
Loading
Personal Weather Stations






























Interactive Weather Map
Tropical Storm Tracking
New forecast layout! Learn more

10-Day Weather Forecast

Advertisements
Track Severe Weather on mobile